Washington, District of Columbia
Traffic Map
Current Weather Conditions
Washington, District of Columbia
Broken Clouds
Broken Clouds
65°
Feels Like: 65°
Wind Chill: 65° Ceiling: 25000
Heat Index: 65° Visibility: 10mi
Dew Point: 44° Wind: 13mph
Humidity: 47% Direction: 120° (ESE)
Pressure: 30.35in Gusts: 17mph
Raw Report DataKDCA 221852Z 12011G15KT 10SM FEW040 BKN250 18/07 A3035 RMK AO2 SLP277 T01830067
Traffic Incident Summary
Active as of:
Severity:
Category:
InformationThere was an issue retrieving the traffic information for this location. Please try a different location or try again shortly.
Advertisements